createdAt,value
2023-11-30T00:00:56.656Z,5.73
2023-11-30T00:04:18.699Z,6.33
2023-11-30T00:07:40.543Z,8.53
2023-11-30T00:11:02.441Z,5.17
2023-11-30T00:14:25.666Z,7.47
2023-11-30T00:17:47.156Z,6.40
2023-11-30T00:21:09.166Z,5.77
2023-11-30T00:24:30.768Z,6.63
2023-11-30T00:27:52.717Z,7.73
2023-11-30T00:31:15.950Z,7.43
2023-11-30T00:34:37.730Z,6.63
2023-11-30T00:37:59.113Z,8.47
2023-11-30T00:41:20.709Z,6.20
2023-11-30T00:44:43.856Z,10.33
2023-11-30T00:48:07.668Z,8.57
2023-11-30T00:51:30.742Z,10.03
2023-11-30T00:54:52.805Z,7.67
2023-11-30T00:58:14.664Z,7.13
2023-11-30T01:01:36.675Z,6.57
2023-11-30T01:04:59.978Z,7.23
2023-11-30T01:08:21.866Z,9.10
2023-11-30T01:11:44.640Z,8.07
2023-11-30T01:15:07.247Z,7.43
2023-11-30T01:18:29.228Z,8.33
2023-11-30T01:21:52.296Z,6.87
2023-11-30T01:25:15.091Z,6.60
2023-11-30T01:28:36.969Z,7.80
2023-11-30T01:31:58.810Z,8.13
2023-11-30T01:35:20.568Z,6.60
2023-11-30T01:38:43.218Z,6.63
2023-11-30T01:42:06.040Z,7.47
2023-11-30T01:45:28.596Z,8.93
2023-11-30T01:48:50.672Z,8.23
2023-11-30T01:52:14.436Z,8.73
2023-11-30T01:55:38.120Z,8.33
2023-11-30T01:58:59.911Z,9.63
2023-11-30T02:02:21.942Z,7.33
2023-11-30T02:05:44.581Z,8.57
2023-11-30T02:09:06.648Z,9.67
2023-11-30T02:12:29.702Z,7.40
2023-11-30T02:15:51.525Z,8.23
2023-11-30T02:19:13.665Z,8.50
2023-11-30T02:22:36.849Z,9.37
2023-11-30T02:25:58.371Z,8.17
2023-11-30T02:29:20.820Z,7.13
2023-11-30T02:32:42.852Z,7.90
2023-11-30T02:36:04.934Z,6.73
2023-11-30T02:39:28.272Z,7.17
2023-11-30T02:42:50.159Z,6.90
2023-11-30T02:46:12.377Z,7.80
2023-11-30T02:49:33.997Z,6.50
2023-11-30T02:52:55.856Z,8.67
2023-11-30T02:56:18.724Z,7.63
2023-11-30T02:59:40.059Z,7.77
2023-11-30T03:03:01.639Z,7.60
2023-11-30T03:06:23.763Z,7.23
2023-11-30T03:09:45.870Z,9.10
2023-11-30T03:13:08.871Z,8.53
2023-11-30T03:16:30.725Z,6.77
2023-11-30T03:19:52.537Z,8.67
2023-11-30T03:23:14.495Z,8.60
2023-11-30T03:26:35.723Z,9.87
2023-11-30T03:29:58.602Z,10.20
2023-11-30T03:33:20.732Z,10.10
2023-11-30T03:36:42.582Z,9.93
2023-11-30T03:40:04.447Z,10.27
2023-11-30T03:43:26.136Z,10.73
2023-11-30T03:46:48.969Z,11.47
2023-11-30T03:50:11.594Z,10.63
2023-11-30T03:53:33.250Z,12.47
2023-11-30T03:56:56.852Z,9.40
2023-11-30T04:00:19.542Z,10.77
2023-11-30T04:03:42.562Z,9.40
2023-11-30T04:07:04.525Z,12.93
2023-11-30T04:10:26.619Z,9.90
2023-11-30T04:13:49.435Z,9.93
2023-11-30T04:17:11.867Z,8.70
2023-11-30T04:20:35.873Z,9.83
2023-11-30T04:23:57.836Z,18.90
2023-11-30T04:27:19.866Z,9.87
2023-11-30T04:30:42.124Z,13.80
2023-11-30T04:34:04.368Z,10.93
2023-11-30T04:37:27.436Z,8.27
2023-11-30T04:40:48.993Z,9.30
2023-11-30T04:44:10.306Z,9.93
2023-11-30T04:47:31.715Z,13.17
2023-11-30T04:50:53.833Z,13.53
2023-11-30T04:54:17.235Z,11.63
2023-11-30T04:57:38.918Z,18.53
2023-11-30T05:01:00.802Z,21.40
2023-11-30T05:04:22.818Z,25.93
2023-11-30T05:07:44.639Z,34.00
2023-11-30T05:11:08.083Z,28.93
2023-11-30T05:14:29.817Z,17.13
2023-11-30T05:17:52.004Z,14.87
2023-11-30T05:21:13.940Z,12.67
2023-11-30T05:24:35.652Z,14.83
2023-11-30T05:27:59.533Z,9.57
2023-11-30T05:31:20.852Z,11.53
2023-11-30T05:34:42.808Z,9.73
2023-11-30T05:38:04.468Z,10.07
2023-11-30T05:41:26.040Z,10.30
2023-11-30T05:44:48.792Z,9.60
2023-11-30T05:48:10.410Z,10.87
2023-11-30T05:51:32.336Z,15.10
2023-11-30T05:54:55.998Z,11.67
2023-11-30T05:58:17.781Z,11.67
2023-11-30T06:01:40.803Z,12.67
2023-11-30T06:05:02.667Z,11.80
2023-11-30T06:08:25.654Z,13.23
2023-11-30T06:11:47.329Z,12.73
2023-11-30T06:15:10.854Z,11.37
2023-11-30T06:18:34.366Z,11.90
2023-11-30T06:21:56.235Z,13.57
2023-11-30T06:25:17.958Z,11.13
2023-11-30T06:28:39.656Z,11.50
2023-11-30T06:32:01.937Z,13.10
2023-11-30T06:35:24.962Z,30.67
2023-11-30T06:38:46.296Z,13.80
2023-11-30T06:42:08.211Z,15.20
2023-11-30T06:45:29.850Z,13.83
2023-11-30T06:48:52.467Z,14.43
2023-11-30T06:52:15.427Z,20.93
2023-11-30T06:55:36.738Z,14.13
2023-11-30T06:58:59.109Z,17.23
2023-11-30T07:02:20.751Z,18.83
2023-11-30T07:05:43.012Z,21.87
2023-11-30T07:09:07.025Z,20.90
2023-11-30T07:12:29.278Z,22.07
2023-11-30T07:15:51.512Z,17.37
2023-11-30T07:19:14.630Z,14.87
2023-11-30T07:22:36.821Z,13.17
2023-11-30T07:26:00.057Z,14.37
2023-11-30T07:29:26.367Z,15.47
2023-11-30T07:32:48.565Z,15.77
2023-11-30T07:36:15.017Z,17.30
2023-11-30T07:39:37.866Z,16.53
2023-11-30T07:43:01.030Z,14.63
2023-11-30T07:46:22.803Z,15.40
2023-11-30T07:49:44.827Z,15.87
2023-11-30T07:53:09.685Z,19.57
2023-11-30T07:56:31.446Z,27.40
2023-11-30T07:59:54.326Z,21.50
2023-11-30T08:03:16.143Z,14.43
2023-11-30T08:06:38.168Z,14.47
2023-11-30T08:10:00.348Z,13.77
2023-11-30T08:13:22.872Z,14.63
2023-11-30T08:16:46.335Z,12.93
2023-11-30T08:20:11.266Z,16.23
2023-11-30T08:23:34.466Z,14.27
2023-11-30T08:26:56.134Z,11.90
2023-11-30T08:30:18.607Z,13.27
2023-11-30T08:33:41.711Z,16.23
2023-11-30T08:37:03.536Z,16.30
2023-11-30T08:40:25.427Z,12.37
2023-11-30T08:43:46.841Z,16.23
2023-11-30T08:47:08.569Z,18.73
2023-11-30T08:50:31.827Z,14.00
2023-11-30T08:53:53.458Z,14.67
2023-11-30T08:57:15.067Z,17.37
2023-11-30T09:00:40.861Z,14.67
2023-11-30T09:04:06.034Z,13.00
2023-11-30T09:07:29.585Z,13.87
2023-11-30T09:10:51.413Z,12.90
2023-11-30T09:14:13.110Z,11.20
2023-11-30T09:17:35.116Z,15.80
2023-11-30T09:20:56.951Z,14.63
2023-11-30T09:24:23.304Z,13.63
2023-11-30T09:27:45.257Z,13.23
2023-11-30T09:31:08.065Z,15.33
2023-11-30T09:34:31.111Z,17.07
2023-11-30T09:37:52.448Z,16.07
2023-11-30T09:41:18.201Z,15.03
2023-11-30T09:44:40.216Z,17.37
2023-11-30T09:48:01.988Z,16.37
2023-11-30T09:51:27.845Z,17.73
2023-11-30T09:54:56.269Z,18.47
2023-11-30T09:58:19.401Z,25.50
2023-11-30T10:01:41.494Z,19.40
2023-11-30T10:05:04.287Z,14.57
2023-11-30T10:08:25.877Z,15.23
2023-11-30T10:11:47.634Z,17.23
2023-11-30T10:15:11.725Z,16.53
2023-11-30T10:18:34.582Z,16.13
2023-11-30T10:21:56.909Z,13.53
2023-11-30T10:25:18.856Z,15.07
2023-11-30T10:28:40.333Z,15.47
2023-11-30T10:32:06.301Z,16.17
2023-11-30T10:35:31.840Z,13.80
2023-11-30T10:38:59.426Z,15.63
2023-11-30T10:42:23.636Z,16.23
2023-11-30T10:45:47.390Z,24.73
2023-11-30T10:49:10.743Z,18.33
2023-11-30T10:52:33.592Z,19.73
2023-11-30T10:55:56.189Z,18.33
2023-11-30T10:59:17.952Z,15.40
2023-11-30T11:02:39.880Z,18.00
2023-11-30T11:06:06.860Z,18.33
2023-11-30T11:09:28.502Z,15.47
2023-11-30T11:12:53.645Z,16.77
2023-11-30T11:16:15.617Z,14.37
2023-11-30T11:19:41.624Z,16.30
2023-11-30T11:23:10.121Z,14.87
2023-11-30T11:26:42.856Z,14.37
2023-11-30T11:30:09.841Z,17.43
2023-11-30T11:33:31.719Z,15.93
2023-11-30T11:36:53.610Z,14.07
2023-11-30T11:40:18.354Z,14.83
2023-11-30T11:43:39.858Z,15.00
2023-11-30T11:47:01.953Z,16.83
2023-11-30T11:50:23.532Z,13.60
2023-11-30T11:53:45.171Z,15.93
2023-11-30T11:57:08.272Z,13.30
2023-11-30T12:00:31.186Z,16.50
2023-11-30T12:03:53.585Z,16.93
2023-11-30T12:07:17.493Z,13.90
2023-11-30T12:10:42.780Z,13.17
2023-11-30T12:14:06.903Z,16.27
2023-11-30T12:17:28.405Z,12.83
2023-11-30T12:20:50.731Z,13.10
2023-11-30T12:24:12.938Z,14.63
2023-11-30T12:27:34.721Z,11.73
2023-11-30T12:30:58.283Z,11.87
2023-11-30T12:34:21.005Z,12.87
2023-11-30T12:37:43.098Z,11.87
2023-11-30T12:41:05.177Z,12.30
2023-11-30T12:44:27.108Z,14.07
2023-11-30T12:47:50.840Z,15.53
2023-11-30T12:51:12.754Z,15.70
2023-11-30T12:54:35.003Z,12.57
2023-11-30T12:57:57.141Z,14.53
2023-11-30T13:01:19.064Z,15.50
2023-11-30T13:04:43.631Z,10.30
2023-11-30T13:08:05.382Z,12.83
2023-11-30T13:11:27.053Z,11.90
2023-11-30T13:14:57.297Z,13.13
2023-11-30T13:18:21.438Z,11.97
2023-11-30T13:21:46.409Z,11.77
2023-11-30T13:25:11.294Z,12.30
2023-11-30T13:28:37.933Z,13.57
2023-11-30T13:32:05.502Z,9.67
2023-11-30T13:35:27.992Z,10.23
2023-11-30T13:38:50.945Z,12.50
2023-11-30T13:42:12.580Z,11.93
2023-11-30T13:45:34.705Z,11.40
2023-11-30T13:48:56.362Z,10.97
2023-11-30T13:52:18.170Z,10.57
2023-11-30T13:55:43.290Z,15.07
2023-11-30T13:59:10.184Z,12.53
2023-11-30T14:02:32.965Z,15.17
2023-11-30T14:05:55.353Z,13.53
2023-11-30T14:09:27.078Z,12.27
2023-11-30T14:12:50.289Z,11.10
2023-11-30T14:16:12.871Z,15.80
2023-11-30T14:19:35.207Z,14.23
2023-11-30T14:22:57.305Z,12.67
2023-11-30T14:26:18.700Z,12.70
2023-11-30T14:29:42.178Z,13.63
2023-11-30T14:33:04.038Z,16.20
2023-11-30T14:36:26.148Z,15.80
2023-11-30T14:39:48.669Z,13.43
2023-11-30T14:43:10.703Z,16.67
2023-11-30T14:46:34.711Z,16.20
2023-11-30T14:49:56.587Z,15.03
2023-11-30T14:53:17.952Z,13.57
2023-11-30T14:56:40.885Z,15.00
2023-11-30T15:00:05.316Z,16.07
2023-11-30T15:03:28.469Z,17.23
2023-11-30T15:06:50.415Z,18.50
2023-11-30T15:10:13.043Z,18.23
2023-11-30T15:13:35.057Z,18.13
2023-11-30T15:16:56.535Z,14.73
2023-11-30T15:20:20.445Z,16.47
2023-11-30T15:23:43.695Z,17.20
2023-11-30T15:27:05.517Z,15.27
2023-11-30T15:30:27.807Z,15.17
2023-11-30T15:33:50.255Z,18.07
2023-11-30T15:37:13.322Z,20.77
2023-11-30T15:40:36.612Z,27.03
2023-11-30T15:43:58.381Z,36.53
2023-11-30T15:47:20.632Z,23.07
2023-11-30T15:50:42.736Z,19.70
2023-11-30T15:54:05.944Z,15.37
2023-11-30T15:57:27.599Z,14.37
2023-11-30T16:00:49.949Z,14.00
2023-11-30T16:04:12.308Z,14.37
2023-11-30T16:07:35.413Z,13.60
2023-11-30T16:10:58.320Z,15.73
2023-11-30T16:14:20.107Z,14.47
2023-11-30T16:17:42.305Z,14.73
2023-11-30T16:21:04.281Z,12.87
2023-11-30T16:24:25.855Z,12.90
2023-11-30T16:27:50.274Z,12.93
2023-11-30T16:31:12.124Z,12.27
2023-11-30T16:34:33.501Z,35.13
2023-11-30T16:37:55.870Z,44.07
2023-11-30T16:41:17.858Z,28.87
2023-11-30T16:44:42.970Z,24.00
2023-11-30T16:48:04.543Z,22.10
2023-11-30T16:51:26.776Z,20.90
2023-11-30T16:54:48.600Z,23.90
2023-11-30T16:58:10.187Z,23.40
2023-11-30T17:01:35.343Z,22.57
2023-11-30T17:04:57.578Z,22.13
2023-11-30T17:08:19.278Z,26.00
2023-11-30T17:11:40.926Z,30.77
2023-11-30T17:15:06.372Z,33.97
2023-11-30T17:18:29.647Z,36.03
2023-11-30T17:21:53.573Z,42.07
2023-11-30T17:25:16.949Z,43.10
2023-11-30T17:29:28.230Z,41.23
2023-11-30T17:32:50.413Z,42.13
2023-11-30T17:36:13.804Z,39.10
2023-11-30T17:39:35.708Z,33.90
2023-11-30T17:42:57.688Z,40.77
2023-11-30T17:46:19.521Z,51.37
2023-11-30T17:49:41.528Z,72.97
2023-11-30T17:53:05.927Z,40.03
2023-11-30T17:56:27.552Z,32.77
2023-11-30T17:59:49.482Z,29.60
2023-11-30T18:03:10.892Z,27.90
2023-11-30T18:06:33.225Z,24.00
2023-11-30T18:10:00.442Z,21.87
2023-11-30T18:13:22.364Z,20.63
2023-11-30T18:16:44.900Z,23.53
2023-11-30T18:20:07.294Z,19.17
2023-11-30T18:23:28.680Z,18.20
2023-11-30T18:26:51.623Z,18.83
2023-11-30T18:30:14.947Z,15.63
2023-11-30T18:33:36.506Z,16.90
2023-11-30T18:36:58.827Z,16.20
2023-11-30T18:40:21.350Z,16.87
2023-11-30T18:43:44.449Z,16.83
2023-11-30T18:47:06.441Z,16.93
2023-11-30T18:50:28.525Z,17.80
2023-11-30T18:53:50.369Z,20.23
2023-11-30T18:57:12.101Z,17.17
2023-11-30T19:00:35.530Z,19.70
2023-11-30T19:03:57.398Z,22.43
2023-11-30T19:07:18.794Z,18.40
2023-11-30T19:10:40.909Z,21.63
2023-11-30T19:14:02.443Z,18.73
2023-11-30T19:17:25.789Z,18.30
2023-11-30T19:20:47.317Z,16.90
2023-11-30T19:24:09.750Z,22.93
2023-11-30T19:27:31.874Z,28.40
2023-11-30T19:30:53.526Z,27.47
2023-11-30T19:34:16.988Z,25.77
2023-11-30T19:37:38.658Z,17.33
2023-11-30T19:41:00.842Z,19.63
2023-11-30T19:44:22.728Z,18.23
2023-11-30T19:47:45.024Z,19.13
2023-11-30T19:51:08.509Z,19.43
2023-11-30T19:54:30.101Z,18.10
2023-11-30T19:57:52.457Z,22.10
2023-11-30T20:01:14.195Z,19.47
2023-11-30T20:04:36.036Z,17.90
2023-11-30T20:07:59.308Z,14.93
2023-11-30T20:11:22.630Z,20.77
2023-11-30T20:14:44.845Z,15.47
2023-11-30T20:18:08.232Z,17.60
2023-11-30T20:21:30.198Z,18.67
2023-11-30T20:24:53.840Z,19.23
2023-11-30T20:28:15.886Z,16.13
2023-11-30T20:31:37.361Z,15.53
2023-11-30T20:34:59.367Z,15.80
2023-11-30T20:38:20.953Z,14.63
2023-11-30T20:41:45.250Z,14.07
2023-11-30T20:45:07.532Z,14.97
2023-11-30T20:48:29.431Z,15.50
2023-11-30T20:51:50.811Z,13.47
2023-11-30T20:55:13.097Z,18.17
2023-11-30T20:58:37.896Z,18.73
2023-11-30T21:02:01.052Z,14.57
2023-11-30T21:05:23.404Z,19.83
2023-11-30T21:08:45.310Z,15.97
2023-11-30T21:12:07.637Z,18.10
2023-11-30T21:15:30.987Z,19.83
2023-11-30T21:18:53.003Z,18.73
2023-11-30T21:22:14.841Z,24.57
2023-11-30T21:25:36.527Z,21.93
2023-11-30T21:28:57.944Z,19.17
2023-11-30T21:32:20.927Z,17.13
2023-11-30T21:35:42.798Z,14.83
2023-11-30T21:39:04.717Z,18.33
2023-11-30T21:42:26.581Z,14.87
2023-11-30T21:45:48.027Z,22.67
2023-11-30T21:49:11.621Z,19.13
2023-11-30T21:52:33.810Z,23.03
2023-11-30T21:55:55.475Z,19.23
2023-11-30T21:59:17.748Z,23.03
2023-11-30T22:02:39.999Z,19.67
2023-11-30T22:06:02.778Z,20.67
2023-11-30T22:09:24.117Z,19.50
2023-11-30T22:12:45.607Z,20.47
2023-11-30T22:16:12.661Z,15.40
2023-11-30T22:19:35.836Z,16.90
2023-11-30T22:22:58.856Z,19.47
2023-11-30T22:26:20.225Z,20.30
2023-11-30T22:29:43.557Z,22.20
2023-11-30T22:33:05.286Z,16.03
2023-11-30T22:36:27.040Z,20.47
2023-11-30T22:39:50.468Z,24.20
2023-11-30T22:43:12.551Z,23.63
2023-11-30T22:46:34.192Z,18.93
2023-11-30T22:49:56.250Z,19.73
2023-11-30T22:53:18.180Z,19.20
2023-11-30T22:56:41.205Z,18.07
2023-11-30T23:00:02.867Z,15.27
2023-11-30T23:03:25.004Z,15.43
2023-11-30T23:06:46.906Z,17.50
2023-11-30T23:10:13.243Z,18.17
2023-11-30T23:13:36.645Z,18.70
2023-11-30T23:16:58.735Z,18.00
2023-11-30T23:20:20.141Z,20.33
2023-11-30T23:23:42.334Z,15.17
2023-11-30T23:27:03.762Z,13.60
2023-11-30T23:30:26.482Z,15.93
2023-11-30T23:33:48.316Z,17.70
2023-11-30T23:37:10.409Z,21.93
2023-11-30T23:40:32.297Z,18.80
2023-11-30T23:43:53.989Z,21.00
2023-11-30T23:47:16.858Z,14.33
2023-11-30T23:50:38.313Z,14.90
2023-11-30T23:54:00.062Z,15.00
2023-11-30T23:57:21.712Z,11.37
